createdAt,value
2019-05-19T00:01:37.212Z,75.37
2019-05-19T00:04:07.126Z,75.30
2019-05-19T00:06:37.358Z,75.71
2019-05-19T00:09:06.308Z,75.75
2019-05-19T00:11:36.410Z,75.91
2019-05-19T00:14:06.106Z,75.44
2019-05-19T00:16:35.539Z,75.37
2019-05-19T00:19:04.370Z,76.36
2019-05-19T00:21:33.298Z,76.74
2019-05-19T00:24:02.141Z,76.81
2019-05-19T00:26:32.172Z,77.23
2019-05-19T00:29:01.062Z,77.08
2019-05-19T00:31:31.360Z,77.53
2019-05-19T00:34:00.266Z,77.37
2019-05-19T00:36:29.095Z,77.01
2019-05-19T00:38:57.957Z,76.71
2019-05-19T00:41:26.803Z,77.13
2019-05-19T00:43:55.617Z,76.92
2019-05-19T00:46:25.879Z,76.55
2019-05-19T00:48:54.732Z,76.70
2019-05-19T00:51:23.636Z,76.54
2019-05-19T00:53:53.012Z,76.66
2019-05-19T00:56:21.828Z,75.92
2019-05-19T00:58:50.667Z,75.69
2019-05-19T01:01:19.509Z,76.02
2019-05-19T01:03:48.348Z,76.24
2019-05-19T01:06:17.215Z,75.77
2019-05-19T01:08:46.055Z,75.83
2019-05-19T01:11:14.882Z,75.90
2019-05-19T01:13:44.761Z,75.90
2019-05-19T01:16:13.609Z,76.38
2019-05-19T01:18:42.464Z,76.18
2019-05-19T01:21:11.309Z,76.85
2019-05-19T01:23:40.215Z,76.14
2019-05-19T01:26:10.160Z,76.15
2019-05-19T01:28:39.041Z,75.24
2019-05-19T01:31:09.004Z,76.35
2019-05-19T01:33:38.458Z,76.86
2019-05-19T01:36:07.563Z,77.14
2019-05-19T01:38:36.390Z,77.46
2019-05-19T01:41:05.213Z,77.92
2019-05-19T01:43:34.576Z,78.38
2019-05-19T01:46:03.430Z,78.85
2019-05-19T01:48:32.238Z,78.91
2019-05-19T01:51:01.800Z,78.52
2019-05-19T01:53:30.618Z,77.80
2019-05-19T01:55:59.424Z,77.90
2019-05-19T01:58:28.223Z,77.83
2019-05-19T02:00:57.790Z,78.55
2019-05-19T02:03:26.602Z,78.63
2019-05-19T02:05:56.392Z,78.19
2019-05-19T02:08:25.416Z,79.06
2019-05-19T02:10:54.198Z,78.20
2019-05-19T02:13:23.688Z,78.34
2019-05-19T02:15:52.536Z,78.93
2019-05-19T02:18:21.462Z,79.01
2019-05-19T02:20:50.545Z,78.47
2019-05-19T02:23:20.020Z,78.32
2019-05-19T02:25:49.052Z,79.53
2019-05-19T02:28:18.412Z,79.72
2019-05-19T02:30:48.864Z,80.03
2019-05-19T02:33:17.878Z,79.49
2019-05-19T02:35:46.699Z,79.88
2019-05-19T02:38:15.657Z,79.04
2019-05-19T02:40:47.177Z,79.44
2019-05-19T02:43:16.285Z,80.17
2019-05-19T02:45:45.173Z,80.16
2019-05-19T02:48:14.039Z,80.35
2019-05-19T02:50:52.034Z,80.54
2019-05-19T02:53:12.594Z,80.73
2019-05-19T02:55:41.507Z,81.13
2019-05-19T02:58:10.382Z,81.69
2019-05-19T03:00:39.982Z,81.15
2019-05-19T03:03:09.546Z,81.32
2019-05-19T03:05:39.339Z,82.11
2019-05-19T03:08:08.186Z,81.35
2019-05-19T03:10:37.540Z,81.83
2019-05-19T03:13:07.132Z,81.88
2019-05-19T03:15:36.748Z,82.39
2019-05-19T03:18:05.577Z,82.08
2019-05-19T03:20:34.428Z,81.80
2019-05-19T03:23:03.296Z,82.30
2019-05-19T03:25:32.276Z,82.44
2019-05-19T03:28:01.123Z,81.69
2019-05-19T03:31:34.953Z,81.61
2019-05-19T03:34:03.882Z,81.78
2019-05-19T03:36:32.750Z,82.01
2019-05-19T03:39:07.656Z,82.71
2019-05-19T03:41:36.481Z,82.92
2019-05-19T03:44:05.302Z,82.46
2019-05-19T03:46:34.115Z,81.90
2019-05-19T03:49:03.582Z,82.65
2019-05-19T03:51:33.363Z,82.15
2019-05-19T03:54:02.720Z,82.30
2019-05-19T03:56:31.544Z,82.91
2019-05-19T03:59:00.424Z,82.85
2019-05-19T04:01:29.350Z,83.50
2019-05-19T04:03:58.208Z,83.70
2019-05-19T04:06:27.623Z,83.57
2019-05-19T04:08:56.450Z,83.56
2019-05-19T04:11:25.323Z,83.21
2019-05-19T04:13:55.047Z,83.39
2019-05-19T04:16:24.884Z,83.59
2019-05-19T04:18:54.205Z,83.37
2019-05-19T04:21:25.306Z,83.38
2019-05-19T04:23:54.672Z,83.75
2019-05-19T04:26:23.533Z,83.48
2019-05-19T04:28:52.696Z,83.56
2019-05-19T04:31:21.639Z,83.55
2019-05-19T04:33:50.457Z,83.35
2019-05-19T04:36:19.419Z,83.53
2019-05-19T04:38:49.535Z,83.52
2019-05-19T04:41:18.559Z,82.82
2019-05-19T04:43:48.554Z,82.99
2019-05-19T04:46:17.371Z,82.57
2019-05-19T04:48:47.158Z,82.32
2019-05-19T04:51:16.049Z,82.04
2019-05-19T04:53:44.864Z,82.27
2019-05-19T04:56:13.702Z,81.67
2019-05-19T04:58:42.541Z,81.54
2019-05-19T05:01:12.011Z,81.21
2019-05-19T05:03:41.932Z,81.04
2019-05-19T05:06:10.796Z,80.55
2019-05-19T05:08:39.780Z,80.16
2019-05-19T05:11:08.935Z,79.36
2019-05-19T05:13:38.379Z,77.76
2019-05-19T05:16:07.218Z,75.75
2019-05-19T05:18:36.076Z,74.34
2019-05-19T05:21:05.789Z,73.76
2019-05-19T05:23:34.769Z,74.06
2019-05-19T05:26:04.019Z,73.29
2019-05-19T05:28:33.468Z,72.69
2019-05-19T05:31:02.404Z,72.60
2019-05-19T05:33:31.228Z,72.63
2019-05-19T05:36:00.212Z,72.37
2019-05-19T05:38:29.950Z,71.19
2019-05-19T05:40:58.798Z,71.60
2019-05-19T05:43:27.694Z,71.03
2019-05-19T05:45:56.524Z,71.07
2019-05-19T05:48:25.353Z,71.01
2019-05-19T05:50:55.462Z,70.54
2019-05-19T05:53:24.544Z,69.53
2019-05-19T05:55:57.481Z,68.48
2019-05-19T05:58:27.307Z,68.42
2019-05-19T06:00:58.157Z,66.98
2019-05-19T06:03:28.280Z,65.59
2019-05-19T06:05:58.551Z,65.44
2019-05-19T06:08:27.487Z,64.34
2019-05-19T06:10:57.552Z,63.46
2019-05-19T06:13:27.103Z,63.07
2019-05-19T06:15:55.919Z,62.59
2019-05-19T06:18:24.744Z,62.74
2019-05-19T06:20:54.250Z,62.56
2019-05-19T06:23:23.480Z,62.10
2019-05-19T06:25:53.258Z,61.69
2019-05-19T06:28:22.689Z,61.59
2019-05-19T06:30:51.792Z,61.47
2019-05-19T06:33:20.623Z,60.43
2019-05-19T06:35:49.480Z,59.93
2019-05-19T06:38:19.581Z,59.64
2019-05-19T06:40:49.350Z,57.82
2019-05-19T06:43:18.291Z,57.41
2019-05-19T06:45:47.168Z,57.71
2019-05-19T06:48:16.044Z,57.27
2019-05-19T06:50:44.906Z,57.43
2019-05-19T06:53:14.716Z,56.71
2019-05-19T06:55:43.508Z,56.50
2019-05-19T07:19:54.988Z,54.90
2019-05-19T07:22:23.800Z,54.69
2019-05-19T07:24:52.731Z,54.01
2019-05-19T07:27:22.073Z,53.69
2019-05-19T07:29:51.645Z,52.81
2019-05-19T07:32:21.229Z,51.77
2019-05-19T07:34:50.026Z,50.73
2019-05-19T07:37:20.018Z,52.43
2019-05-19T07:39:50.107Z,50.93
2019-05-19T07:42:18.989Z,51.36
2019-05-19T07:44:48.822Z,50.89
2019-05-19T07:47:19.420Z,49.86
2019-05-19T07:49:48.357Z,50.65
2019-05-19T07:52:17.965Z,49.19
2019-05-19T07:54:47.572Z,48.06
2019-05-19T07:57:17.164Z,50.35
2019-05-19T07:59:45.977Z,48.71
2019-05-19T08:02:16.980Z,49.17
2019-05-19T08:04:46.853Z,48.90
2019-05-19T08:07:15.732Z,49.46
2019-05-19T08:09:47.279Z,47.99
2019-05-19T08:12:17.470Z,47.89
2019-05-19T08:14:46.377Z,47.18
2019-05-19T08:17:15.276Z,47.20
2019-05-19T08:19:44.128Z,46.42
2019-05-19T08:22:15.159Z,46.00
2019-05-19T08:24:44.250Z,47.53
2019-05-19T08:27:13.819Z,47.18
2019-05-19T08:29:42.692Z,46.85
2019-05-19T08:32:11.529Z,47.24
2019-05-19T08:34:40.367Z,46.91
2019-05-19T08:37:10.299Z,45.45
2019-05-19T08:39:39.801Z,44.28
2019-05-19T08:42:09.324Z,44.76
2019-05-19T08:44:39.456Z,43.55
2019-05-19T08:47:08.374Z,43.81
2019-05-19T08:49:37.326Z,44.35
2019-05-19T08:52:06.231Z,44.58
2019-05-19T08:54:35.088Z,45.50
2019-05-19T08:57:04.528Z,45.00
2019-05-19T08:59:33.483Z,45.20
2019-05-19T09:02:02.471Z,44.46
2019-05-19T09:04:31.379Z,44.68
2019-05-19T09:07:00.267Z,44.11
2019-05-19T09:09:29.153Z,42.81
2019-05-19T09:11:58.084Z,43.54
2019-05-19T09:14:27.818Z,43.15
2019-05-19T09:16:56.641Z,42.69
2019-05-19T09:19:25.531Z,41.57
2019-05-19T09:21:54.450Z,42.12
2019-05-19T09:24:30.611Z,41.04
2019-05-19T09:26:52.529Z,42.06
2019-05-19T09:29:21.693Z,41.33
2019-05-19T09:31:50.783Z,42.00
2019-05-19T09:34:20.300Z,41.13
2019-05-19T09:36:50.250Z,41.88
2019-05-19T09:39:19.044Z,42.73
2019-05-19T09:41:47.931Z,41.31
2019-05-19T09:44:16.752Z,41.31
2019-05-19T09:46:46.557Z,41.66
2019-05-19T09:49:24.139Z,42.51
2019-05-19T09:51:53.096Z,41.48
2019-05-19T09:54:21.913Z,41.17
2019-05-19T09:56:50.859Z,42.05
2019-05-19T09:59:20.144Z,41.19
2019-05-19T10:01:48.967Z,40.23
2019-05-19T10:04:18.062Z,40.13
2019-05-19T10:06:47.878Z,37.92
2019-05-19T10:09:56.688Z,38.57
2019-05-19T10:12:25.744Z,37.60
2019-05-19T10:14:54.589Z,37.62
2019-05-19T10:17:24.330Z,35.25
2019-05-19T10:19:53.798Z,36.28
2019-05-19T10:22:24.428Z,35.39
2019-05-19T10:25:10.075Z,36.77
2019-05-19T10:27:22.260Z,36.89
2019-05-19T10:29:51.115Z,37.02
2019-05-19T10:32:19.990Z,36.18
2019-05-19T10:34:49.511Z,36.50
2019-05-19T10:37:19.371Z,36.51
2019-05-19T10:39:48.606Z,36.29
2019-05-19T10:42:17.559Z,36.78
2019-05-19T10:44:47.413Z,35.76
2019-05-19T10:47:17.387Z,36.12
2019-05-19T10:49:46.256Z,35.11
2019-05-19T10:52:15.083Z,34.57
2019-05-19T10:54:45.608Z,32.44
2019-05-19T10:57:14.391Z,33.50
2019-05-19T10:59:43.216Z,34.10
2019-05-19T11:02:12.141Z,33.80
2019-05-19T11:04:41.107Z,33.88
2019-05-19T11:07:10.712Z,34.26
2019-05-19T11:09:40.228Z,35.69
2019-05-19T11:12:09.103Z,34.98
2019-05-19T11:14:37.921Z,34.78
2019-05-19T11:17:07.992Z,34.62
2019-05-19T11:19:36.903Z,34.01
2019-05-19T11:22:05.726Z,35.64
2019-05-19T11:24:34.576Z,35.05
2019-05-19T11:27:05.827Z,34.90
2019-05-19T11:29:34.696Z,34.96
2019-05-19T11:32:03.825Z,34.97
2019-05-19T11:34:32.726Z,34.14
2019-05-19T11:37:01.593Z,35.50
2019-05-19T11:39:31.335Z,34.62
2019-05-19T11:42:00.182Z,34.43
2019-05-19T11:44:29.807Z,33.91
2019-05-19T11:46:58.692Z,34.01
2019-05-19T11:49:28.813Z,33.30
2019-05-19T11:51:57.688Z,31.83
2019-05-19T11:54:27.009Z,32.22
2019-05-19T11:56:55.870Z,33.01
2019-05-19T11:59:25.030Z,32.10
2019-05-19T12:01:53.879Z,33.10
2019-05-19T12:04:22.688Z,32.25
2019-05-19T12:06:51.545Z,32.26
2019-05-19T12:09:21.078Z,32.61
2019-05-19T12:11:50.703Z,32.30
2019-05-19T12:14:20.263Z,31.85
2019-05-19T12:16:49.285Z,32.79
2019-05-19T12:19:18.092Z,32.20
2019-05-19T12:21:46.932Z,33.45
2019-05-19T12:24:15.766Z,32.90
2019-05-19T12:26:45.242Z,32.31
2019-05-19T12:29:14.148Z,31.90
2019-05-19T12:31:42.991Z,32.11
2019-05-19T12:34:11.896Z,32.42
2019-05-19T12:36:40.908Z,33.56
2019-05-19T12:39:09.715Z,34.62
2019-05-19T12:41:39.222Z,33.79
2019-05-19T12:44:08.269Z,33.94
2019-05-19T12:46:37.152Z,33.10
2019-05-19T12:49:05.987Z,34.80
2019-05-19T12:51:34.844Z,34.33
2019-05-19T12:54:06.640Z,33.41
2019-05-19T12:56:39.530Z,34.09
2019-05-19T12:59:04.566Z,34.26
2019-05-19T13:01:39.651Z,34.17
2019-05-19T13:04:09.156Z,33.63
2019-05-19T13:06:38.061Z,33.10
2019-05-19T13:09:06.948Z,30.93
2019-05-19T13:11:36.082Z,30.78
2019-05-19T13:14:05.209Z,30.63
2019-05-19T13:16:36.304Z,31.26
2019-05-19T13:19:05.309Z,30.47
2019-05-19T13:21:34.204Z,29.92
2019-05-19T13:24:04.490Z,30.41
2019-05-19T13:26:33.836Z,31.89
2019-05-19T13:29:02.743Z,32.01
2019-05-19T13:31:32.903Z,32.11
2019-05-19T13:34:02.328Z,33.68
2019-05-19T13:36:31.176Z,33.21
2019-05-19T13:39:00.103Z,33.89
2019-05-19T13:41:28.952Z,35.43
2019-05-19T13:43:59.670Z,36.84
2019-05-19T13:46:26.654Z,36.49
2019-05-19T13:48:55.484Z,37.12
2019-05-19T13:51:24.348Z,36.62
2019-05-19T13:53:53.180Z,37.30
2019-05-19T13:56:22.138Z,37.40
2019-05-19T13:58:53.796Z,37.21
2019-05-19T14:01:28.790Z,38.08
2019-05-19T14:03:52.262Z,37.36
2019-05-19T14:06:20.396Z,37.52
2019-05-19T14:08:49.228Z,37.56
2019-05-19T14:11:18.125Z,37.16
2019-05-19T14:13:47.939Z,37.71
2019-05-19T14:16:16.782Z,36.96
2019-05-19T14:18:45.697Z,37.23
2019-05-19T14:21:14.512Z,40.45
2019-05-19T14:23:43.384Z,42.74
2019-05-19T14:26:12.760Z,43.47
2019-05-19T14:28:42.215Z,43.14
2019-05-19T14:31:13.803Z,43.68
2019-05-19T14:33:43.683Z,44.67
2019-05-19T14:36:12.543Z,45.97
2019-05-19T14:38:45.557Z,46.75
2019-05-19T14:41:14.394Z,47.31
2019-05-19T14:43:43.240Z,48.09
2019-05-19T14:46:12.196Z,49.10
2019-05-19T14:48:41.131Z,48.30
2019-05-19T14:51:10.401Z,49.73
2019-05-19T14:53:39.399Z,50.84
2019-05-19T14:56:09.548Z,50.21
2019-05-19T14:58:38.432Z,50.88
2019-05-19T15:01:07.512Z,51.43
2019-05-19T15:03:37.318Z,51.59
2019-05-19T15:06:06.128Z,51.50
2019-05-19T15:08:34.969Z,51.20
2019-05-19T15:11:04.982Z,51.01
2019-05-19T15:13:34.754Z,50.89
2019-05-19T15:16:03.573Z,51.64
2019-05-19T15:18:32.511Z,50.95
2019-05-19T15:21:01.433Z,51.37
2019-05-19T15:23:30.241Z,50.96
2019-05-19T15:25:59.158Z,50.69
2019-05-19T15:28:28.029Z,50.25
2019-05-19T15:30:58.636Z,50.71
2019-05-19T15:33:27.724Z,50.10
2019-05-19T15:35:56.459Z,50.16
2019-05-19T15:38:25.378Z,50.20
2019-05-19T15:40:54.209Z,49.66
2019-05-19T15:43:23.084Z,50.08
2019-05-19T15:45:52.317Z,50.42
2019-05-19T15:48:21.156Z,50.36
2019-05-19T15:50:50.697Z,49.68
2019-05-19T15:53:19.567Z,49.86
2019-05-19T15:55:48.437Z,50.42
2019-05-19T15:58:17.402Z,51.54
2019-05-19T16:00:46.260Z,51.63
2019-05-19T16:03:15.178Z,51.66
2019-05-19T16:05:44.064Z,52.33
2019-05-19T16:08:12.971Z,52.09
2019-05-19T16:10:41.910Z,51.63
2019-05-19T16:13:11.641Z,52.66
2019-05-19T16:15:40.560Z,52.03
2019-05-19T16:18:11.457Z,52.41
2019-05-19T16:20:40.459Z,52.16
2019-05-19T16:23:09.662Z,52.74
2019-05-19T16:25:38.537Z,52.74
2019-05-19T16:28:07.438Z,52.13
2019-05-19T16:30:38.370Z,51.60
2019-05-19T16:33:08.357Z,52.17
2019-05-19T16:35:37.286Z,51.70
2019-05-19T16:38:06.159Z,50.98
2019-05-19T16:40:35.638Z,51.61
2019-05-19T16:43:04.589Z,51.63
2019-05-19T16:45:33.484Z,51.84
2019-05-19T16:48:02.405Z,51.82
2019-05-19T16:50:31.368Z,51.62
2019-05-19T16:53:00.231Z,52.84
2019-05-19T16:55:29.796Z,53.38
2019-05-19T16:57:58.670Z,54.17
2019-05-19T17:00:27.548Z,54.96
2019-05-19T17:02:56.963Z,55.90
2019-05-19T17:05:26.645Z,55.64
2019-05-19T17:07:55.459Z,56.65
2019-05-19T17:10:24.593Z,57.38
2019-05-19T17:12:53.429Z,58.34
2019-05-19T17:15:22.430Z,52.13
2019-05-19T17:17:52.133Z,51.31
2019-05-19T17:20:22.017Z,51.37
2019-05-19T17:22:50.841Z,52.72
2019-05-19T17:25:19.703Z,53.28
2019-05-19T17:27:50.913Z,54.29
2019-05-19T17:30:19.967Z,54.72
2019-05-19T17:32:50.040Z,54.75
2019-05-19T17:35:19.848Z,55.95
2019-05-19T17:37:50.355Z,57.08
2019-05-19T17:40:19.925Z,57.82
2019-05-19T17:42:49.079Z,59.26
2019-05-19T17:45:18.608Z,59.24
2019-05-19T17:47:47.811Z,59.12
2019-05-19T17:50:17.724Z,59.11
2019-05-19T17:52:47.001Z,61.84
2019-05-19T17:55:15.851Z,64.31
2019-05-19T17:57:44.989Z,63.98
2019-05-19T18:00:15.596Z,63.05
2019-05-19T18:02:44.367Z,63.21
2019-05-19T18:05:14.066Z,64.35
2019-05-19T18:07:43.479Z,63.58
2019-05-19T18:10:12.358Z,63.88
2019-05-19T18:12:42.122Z,64.62
2019-05-19T18:15:11.053Z,66.32
2019-05-19T18:17:40.287Z,67.75
2019-05-19T18:20:22.917Z,67.78
2019-05-19T18:22:39.166Z,68.97
2019-05-19T18:25:09.646Z,68.27
2019-05-19T18:27:38.684Z,68.74
2019-05-19T18:30:08.865Z,69.31
2019-05-19T18:32:37.915Z,70.18
2019-05-19T18:35:07.636Z,70.08
2019-05-19T18:37:37.620Z,70.80
2019-05-19T18:40:07.110Z,70.48
2019-05-19T18:42:38.398Z,71.36
2019-05-19T18:45:07.372Z,71.54
2019-05-19T18:47:36.175Z,71.29
2019-05-19T18:50:05.452Z,73.13
2019-05-19T18:52:34.279Z,73.57
2019-05-19T18:55:03.644Z,73.01
2019-05-19T18:57:32.473Z,74.35
2019-05-19T19:00:03.162Z,73.41
2019-05-19T19:02:32.299Z,73.98
2019-05-19T19:05:01.927Z,74.47
2019-05-19T19:07:36.135Z,74.76
2019-05-19T19:10:05.220Z,74.39
2019-05-19T19:12:34.108Z,74.88
2019-05-19T19:15:02.989Z,75.16
2019-05-19T19:17:32.105Z,76.40
2019-05-19T19:20:00.923Z,76.18
2019-05-19T19:22:30.538Z,75.76
2019-05-19T19:25:00.070Z,76.28
2019-05-19T19:27:30.503Z,76.29
2019-05-19T19:30:03.871Z,76.83
2019-05-19T19:32:29.535Z,78.16
2019-05-19T19:34:58.414Z,78.65
2019-05-19T19:37:29.226Z,78.76
2019-05-19T19:40:03.343Z,79.02
2019-05-19T19:42:32.176Z,79.64
2019-05-19T19:45:02.463Z,79.92
2019-05-19T19:47:31.231Z,80.81
2019-05-19T19:50:00.067Z,79.60
2019-05-19T19:52:30.105Z,79.83
2019-05-19T19:54:59.170Z,80.91
2019-05-19T19:57:28.935Z,80.94
2019-05-19T19:59:59.843Z,82.47
2019-05-19T20:02:30.007Z,81.03
2019-05-19T20:04:59.619Z,80.81
2019-05-19T20:07:29.418Z,79.37
2019-05-19T20:09:58.938Z,78.72
2019-05-19T20:12:27.803Z,78.66
2019-05-19T20:14:56.645Z,78.91
2019-05-19T20:17:25.535Z,78.57
2019-05-19T20:19:54.452Z,78.20
2019-05-19T20:22:23.283Z,78.50
2019-05-19T20:24:52.783Z,78.68
2019-05-19T20:27:21.642Z,78.13
2019-05-19T20:29:51.117Z,78.11
2019-05-19T20:32:21.160Z,77.66
2019-05-19T20:34:50.712Z,77.48
2019-05-19T20:37:20.261Z,77.97
2019-05-19T20:39:49.104Z,78.30
2019-05-19T20:42:20.650Z,78.78
2019-05-19T20:44:50.232Z,78.10
2019-05-19T20:47:19.631Z,78.69
2019-05-19T20:49:48.532Z,78.39
2019-05-19T20:52:18.457Z,78.17
2019-05-19T20:54:48.618Z,77.54
2019-05-19T20:57:17.488Z,78.32
2019-05-19T20:59:46.460Z,78.00
2019-05-19T21:02:15.379Z,78.67
2019-05-19T21:04:45.056Z,78.47
2019-05-19T21:07:13.932Z,78.60
2019-05-19T21:09:44.255Z,78.10
2019-05-19T21:12:13.748Z,77.79
2019-05-19T21:14:43.236Z,78.40
2019-05-19T21:17:12.027Z,78.69
2019-05-19T21:19:41.463Z,78.99
2019-05-19T21:22:10.348Z,79.51
2019-05-19T21:24:39.207Z,79.60
2019-05-19T21:27:08.870Z,79.75
2019-05-19T21:29:37.943Z,79.44
2019-05-19T21:32:07.366Z,79.63
2019-05-19T21:34:37.063Z,79.48
2019-05-19T21:37:06.863Z,79.76
2019-05-19T21:39:36.282Z,80.06
2019-05-19T21:42:05.444Z,80.86
2019-05-19T21:44:34.469Z,80.93
2019-05-19T21:47:03.311Z,81.04
2019-05-19T21:49:32.698Z,81.15
2019-05-19T21:52:01.514Z,81.42
2019-05-19T21:54:30.319Z,81.91
2019-05-19T21:57:01.472Z,82.65
2019-05-19T21:59:30.604Z,82.07
2019-05-19T22:01:59.793Z,82.03
2019-05-19T22:04:29.343Z,82.36
2019-05-19T22:07:05.337Z,82.28
2019-05-19T22:09:35.455Z,83.10
2019-05-19T22:12:04.427Z,82.93
2019-05-19T22:14:33.806Z,82.57
2019-05-19T22:17:04.690Z,83.34
2019-05-19T22:19:33.554Z,83.62
2019-05-19T22:22:03.442Z,83.59
2019-05-19T22:24:32.263Z,84.48
2019-05-19T22:27:01.108Z,84.39
2019-05-19T22:29:29.935Z,84.32
2019-05-19T22:31:59.597Z,83.87
2019-05-19T22:34:28.455Z,84.03
2019-05-19T22:36:58.023Z,85.33
2019-05-19T22:39:26.891Z,84.55
2019-05-19T22:41:56.449Z,84.90
2019-05-19T22:44:25.380Z,85.11
2019-05-19T22:46:54.275Z,85.04
2019-05-19T22:49:23.101Z,85.20
2019-05-19T22:51:52.871Z,85.75
2019-05-19T22:54:21.681Z,85.65
2019-05-19T22:56:50.531Z,85.36
2019-05-19T22:59:20.400Z,85.86
2019-05-19T23:01:51.906Z,85.51
2019-05-19T23:04:17.016Z,85.61
2019-05-19T23:06:46.370Z,85.16
2019-05-19T23:09:15.795Z,85.34
2019-05-19T23:11:45.423Z,85.36
2019-05-19T23:14:14.309Z,85.59
2019-05-19T23:16:43.156Z,85.43
2019-05-19T23:19:15.673Z,85.56
2019-05-19T23:21:44.570Z,85.64
2019-05-19T23:24:13.368Z,86.18
2019-05-19T23:26:43.900Z,85.81
2019-05-19T23:29:13.625Z,85.83
2019-05-19T23:31:43.212Z,85.37
2019-05-19T23:34:14.807Z,85.86
2019-05-19T23:36:43.604Z,85.67
2019-05-19T23:39:12.419Z,86.34
2019-05-19T23:41:41.693Z,85.91
2019-05-19T23:44:10.554Z,86.50
2019-05-19T23:46:39.413Z,85.94
2019-05-19T23:49:08.276Z,85.78
2019-05-19T23:51:37.088Z,85.62
2019-05-19T23:54:05.963Z,86.26
2019-05-19T23:56:34.871Z,85.94
2019-05-19T23:59:03.759Z,86.05
